sensor_id;sensor_type;location;lat;lon;timestamp;temperature;humidity
18101;DHT22;9177;49.156;8.142;2023-11-18T00:00:57;19.90;96.70
18101;DHT22;9177;49.156;8.142;2023-11-18T00:03:25;19.80;96.70
18101;DHT22;9177;49.156;8.142;2023-11-18T00:05:52;19.90;96.70
18101;DHT22;9177;49.156;8.142;2023-11-18T00:08:19;19.90;96.70
18101;DHT22;9177;49.156;8.142;2023-11-18T00:10:46;19.90;96.70
18101;DHT22;9177;49.156;8.142;2023-11-18T00:13:14;19.90;96.70
18101;DHT22;9177;49.156;8.142;2023-11-18T00:15:41;19.90;96.70
18101;DHT22;9177;49.156;8.142;2023-11-18T00:18:13;19.80;96.60
18101;DHT22;9177;49.156;8.142;2023-11-18T00:20:40;19.80;96.60
18101;DHT22;9177;49.156;8.142;2023-11-18T00:23:07;19.90;96.60
18101;DHT22;9177;49.156;8.142;2023-11-18T00:25:34;19.80;96.60
18101;DHT22;9177;49.156;8.142;2023-11-18T00:28:02;19.80;96.60
18101;DHT22;9177;49.156;8.142;2023-11-18T00:30:29;19.80;96.60
18101;DHT22;9177;49.156;8.142;2023-11-18T00:32:56;19.80;96.60
18101;DHT22;9177;49.156;8.142;2023-11-18T00:35:24;19.80;96.60
18101;DHT22;9177;49.156;8.142;2023-11-18T00:37:51;19.80;96.60
18101;DHT22;9177;49.156;8.142;2023-11-18T00:40:18;19.80;96.60
18101;DHT22;9177;49.156;8.142;2023-11-18T00:42:45;19.80;96.60
18101;DHT22;9177;49.156;8.142;2023-11-18T00:45:12;19.80;96.60
18101;DHT22;9177;49.156;8.142;2023-11-18T00:47:39;19.80;96.50
18101;DHT22;9177;49.156;8.142;2023-11-18T00:50:10;19.80;96.60
18101;DHT22;9177;49.156;8.142;2023-11-18T00:52:38;19.80;96.60
18101;DHT22;9177;49.156;8.142;2023-11-18T00:55:07;19.80;96.50
18101;DHT22;9177;49.156;8.142;2023-11-18T00:57:36;19.80;96.50
18101;DHT22;9177;49.156;8.142;2023-11-18T01:00:06;19.80;96.50
18101;DHT22;9177;49.156;8.142;2023-11-18T01:02:39;19.80;96.50
18101;DHT22;9177;49.156;8.142;2023-11-18T01:05:06;19.80;96.50
18101;DHT22;9177;49.156;8.142;2023-11-18T01:07:38;19.80;96.50
18101;DHT22;9177;49.156;8.142;2023-11-18T01:10:06;19.80;96.50
18101;DHT22;9177;49.156;8.142;2023-11-18T01:12:35;19.80;96.50
18101;DHT22;9177;49.156;8.142;2023-11-18T01:15:03;19.80;96.50
18101;DHT22;9177;49.156;8.142;2023-11-18T01:17:30;19.80;96.90
18101;DHT22;9177;49.156;8.142;2023-11-18T01:19:58;19.80;96.50
18101;DHT22;9177;49.156;8.142;2023-11-18T01:22:26;19.80;96.50
18101;DHT22;9177;49.156;8.142;2023-11-18T01:24:55;19.80;96.50
18101;DHT22;9177;49.156;8.142;2023-11-18T01:27:23;19.80;96.50
18101;DHT22;9177;49.156;8.142;2023-11-18T01:29:50;19.80;96.50
18101;DHT22;9177;49.156;8.142;2023-11-18T01:32:17;19.80;96.50
18101;DHT22;9177;49.156;8.142;2023-11-18T01:34:44;19.70;96.50
18101;DHT22;9177;49.156;8.142;2023-11-18T01:37:16;19.70;96.50
18101;DHT22;9177;49.156;8.142;2023-11-18T01:39:43;19.70;96.80
18101;DHT22;9177;49.156;8.142;2023-11-18T01:42:11;19.70;96.40
18101;DHT22;9177;49.156;8.142;2023-11-18T01:44:38;19.70;96.40
18101;DHT22;9177;49.156;8.142;2023-11-18T01:47:07;19.70;96.40
18101;DHT22;9177;49.156;8.142;2023-11-18T01:49:37;19.70;96.40
18101;DHT22;9177;49.156;8.142;2023-11-18T01:52:06;19.70;96.40
18101;DHT22;9177;49.156;8.142;2023-11-18T01:54:34;19.70;96.40
18101;DHT22;9177;49.156;8.142;2023-11-18T01:57:03;19.70;96.40
18101;DHT22;9177;49.156;8.142;2023-11-18T01:59:33;19.70;96.40
18101;DHT22;9177;49.156;8.142;2023-11-18T02:02:01;19.70;96.40
18101;DHT22;9177;49.156;8.142;2023-11-18T02:04:28;19.70;96.30
18101;DHT22;9177;49.156;8.142;2023-11-18T02:06:56;19.70;96.30
18101;DHT22;9177;49.156;8.142;2023-11-18T02:09:24;19.70;96.30
18101;DHT22;9177;49.156;8.142;2023-11-18T02:11:59;19.70;96.30
18101;DHT22;9177;49.156;8.142;2023-11-18T02:14:28;19.70;96.30
18101;DHT22;9177;49.156;8.142;2023-11-18T02:16:59;19.70;96.30
18101;DHT22;9177;49.156;8.142;2023-11-18T02:19:29;19.70;96.30
18101;DHT22;9177;49.156;8.142;2023-11-18T02:21:57;19.70;96.30
18101;DHT22;9177;49.156;8.142;2023-11-18T02:24:28;19.70;96.30
18101;DHT22;9177;49.156;8.142;2023-11-18T02:26:58;19.70;96.30
18101;DHT22;9177;49.156;8.142;2023-11-18T02:29:26;19.70;96.20
18101;DHT22;9177;49.156;8.142;2023-11-18T02:31:57;19.70;96.20
18101;DHT22;9177;49.156;8.142;2023-11-18T02:34:28;19.60;96.20
18101;DHT22;9177;49.156;8.142;2023-11-18T02:36:58;19.60;96.20
18101;DHT22;9177;49.156;8.142;2023-11-18T02:39:30;19.60;96.20
18101;DHT22;9177;49.156;8.142;2023-11-18T02:42:01;19.60;96.10
18101;DHT22;9177;49.156;8.142;2023-11-18T02:44:30;19.60;96.10
18101;DHT22;9177;49.156;8.142;2023-11-18T02:46:59;19.60;96.10
18101;DHT22;9177;49.156;8.142;2023-11-18T02:49:26;19.60;96.10
18101;DHT22;9177;49.156;8.142;2023-11-18T02:51:53;19.60;96.10
18101;DHT22;9177;49.156;8.142;2023-11-18T02:54:21;19.60;96.10
18101;DHT22;9177;49.156;8.142;2023-11-18T02:56:47;19.60;96.10
18101;DHT22;9177;49.156;8.142;2023-11-18T02:59:16;19.60;96.00
18101;DHT22;9177;49.156;8.142;2023-11-18T03:01:43;19.60;96.00
18101;DHT22;9177;49.156;8.142;2023-11-18T03:04:10;19.60;96.00
18101;DHT22;9177;49.156;8.142;2023-11-18T03:06:36;19.60;96.00
18101;DHT22;9177;49.156;8.142;2023-11-18T03:09:04;19.60;96.00
18101;DHT22;9177;49.156;8.142;2023-11-18T03:11:33;19.60;96.00
18101;DHT22;9177;49.156;8.142;2023-11-18T03:14:00;19.60;96.00
18101;DHT22;9177;49.156;8.142;2023-11-18T03:16:31;19.60;96.00
18101;DHT22;9177;49.156;8.142;2023-11-18T03:18:59;19.60;95.90
18101;DHT22;9177;49.156;8.142;2023-11-18T03:21:26;19.60;95.90
18101;DHT22;9177;49.156;8.142;2023-11-18T03:23:53;19.60;95.90
18101;DHT22;9177;49.156;8.142;2023-11-18T03:26:20;19.60;95.90
18101;DHT22;9177;49.156;8.142;2023-11-18T03:28:47;19.60;95.90
18101;DHT22;9177;49.156;8.142;2023-11-18T03:31:14;19.60;95.90
18101;DHT22;9177;49.156;8.142;2023-11-18T03:33:43;19.60;95.90
18101;DHT22;9177;49.156;8.142;2023-11-18T03:36:10;19.60;95.90
18101;DHT22;9177;49.156;8.142;2023-11-18T03:38:38;19.60;95.80
18101;DHT22;9177;49.156;8.142;2023-11-18T03:41:05;19.60;95.80
18101;DHT22;9177;49.156;8.142;2023-11-18T03:43:33;19.60;95.80
18101;DHT22;9177;49.156;8.142;2023-11-18T03:46:00;19.60;95.80
18101;DHT22;9177;49.156;8.142;2023-11-18T03:48:27;19.60;95.80
18101;DHT22;9177;49.156;8.142;2023-11-18T03:50:55;19.60;95.80
18101;DHT22;9177;49.156;8.142;2023-11-18T03:53:22;19.50;95.80
18101;DHT22;9177;49.156;8.142;2023-11-18T03:55:49;19.60;95.80
18101;DHT22;9177;49.156;8.142;2023-11-18T03:58:17;19.60;95.80
18101;DHT22;9177;49.156;8.142;2023-11-18T04:00:44;19.60;95.80
18101;DHT22;9177;49.156;8.142;2023-11-18T04:03:11;19.50;95.70
18101;DHT22;9177;49.156;8.142;2023-11-18T04:05:38;19.60;95.70
18101;DHT22;9177;49.156;8.142;2023-11-18T04:08:06;19.60;95.70
18101;DHT22;9177;49.156;8.142;2023-11-18T04:10:33;19.60;95.70
18101;DHT22;9177;49.156;8.142;2023-11-18T04:13:00;19.50;95.70
18101;DHT22;9177;49.156;8.142;2023-11-18T04:15:27;19.50;95.70
18101;DHT22;9177;49.156;8.142;2023-11-18T04:17:54;19.50;95.60
18101;DHT22;9177;49.156;8.142;2023-11-18T04:20:21;19.50;95.60
18101;DHT22;9177;49.156;8.142;2023-11-18T04:22:48;19.50;95.60
18101;DHT22;9177;49.156;8.142;2023-11-18T04:25:17;19.50;95.60
18101;DHT22;9177;49.156;8.142;2023-11-18T04:27:44;19.50;95.60
18101;DHT22;9177;49.156;8.142;2023-11-18T04:30:11;19.50;95.60
18101;DHT22;9177;49.156;8.142;2023-11-18T04:32:38;19.50;95.60
18101;DHT22;9177;49.156;8.142;2023-11-18T04:35:08;19.50;95.60
18101;DHT22;9177;49.156;8.142;2023-11-18T04:37:37;19.50;95.60
18101;DHT22;9177;49.156;8.142;2023-11-18T04:40:09;19.50;95.60
18101;DHT22;9177;49.156;8.142;2023-11-18T04:42:39;19.50;95.60
18101;DHT22;9177;49.156;8.142;2023-11-18T04:45:06;19.50;95.50
18101;DHT22;9177;49.156;8.142;2023-11-18T04:47:35;19.50;95.50
18101;DHT22;9177;49.156;8.142;2023-11-18T04:50:03;19.50;95.50
18101;DHT22;9177;49.156;8.142;2023-11-18T04:52:30;19.50;95.50
18101;DHT22;9177;49.156;8.142;2023-11-18T04:54:58;19.50;95.50
18101;DHT22;9177;49.156;8.142;2023-11-18T04:57:25;19.50;95.50
18101;DHT22;9177;49.156;8.142;2023-11-18T04:59:53;19.50;95.50
18101;DHT22;9177;49.156;8.142;2023-11-18T05:02:20;19.50;95.40
18101;DHT22;9177;49.156;8.142;2023-11-18T05:04:48;19.50;95.40
18101;DHT22;9177;49.156;8.142;2023-11-18T05:07:14;19.50;95.40
18101;DHT22;9177;49.156;8.142;2023-11-18T05:09:41;19.50;95.40
18101;DHT22;9177;49.156;8.142;2023-11-18T05:12:08;19.50;95.40
18101;DHT22;9177;49.156;8.142;2023-11-18T05:14:35;19.50;95.40
18101;DHT22;9177;49.156;8.142;2023-11-18T05:17:05;19.50;95.40
18101;DHT22;9177;49.156;8.142;2023-11-18T05:19:32;19.50;95.40
18101;DHT22;9177;49.156;8.142;2023-11-18T05:21:59;19.50;95.40
18101;DHT22;9177;49.156;8.142;2023-11-18T05:24:25;19.50;95.30
18101;DHT22;9177;49.156;8.142;2023-11-18T05:26:53;19.50;95.30
18101;DHT22;9177;49.156;8.142;2023-11-18T05:29:23;19.50;95.30
18101;DHT22;9177;49.156;8.142;2023-11-18T05:31:51;19.50;95.30
18101;DHT22;9177;49.156;8.142;2023-11-18T05:34:19;19.50;95.30
18101;DHT22;9177;49.156;8.142;2023-11-18T05:36:47;19.50;95.30
18101;DHT22;9177;49.156;8.142;2023-11-18T05:39:16;19.50;95.20
18101;DHT22;9177;49.156;8.142;2023-11-18T05:41:46;19.50;95.20
18101;DHT22;9177;49.156;8.142;2023-11-18T05:44:15;19.50;95.20
18101;DHT22;9177;49.156;8.142;2023-11-18T05:46:45;19.50;95.20
18101;DHT22;9177;49.156;8.142;2023-11-18T05:49:13;19.50;95.20
18101;DHT22;9177;49.156;8.142;2023-11-18T05:51:41;19.50;95.20
18101;DHT22;9177;49.156;8.142;2023-11-18T05:54:08;19.50;95.20
18101;DHT22;9177;49.156;8.142;2023-11-18T05:56:35;19.50;95.20
18101;DHT22;9177;49.156;8.142;2023-11-18T05:59:02;19.50;95.10
18101;DHT22;9177;49.156;8.142;2023-11-18T06:01:28;19.40;95.10
18101;DHT22;9177;49.156;8.142;2023-11-18T06:03:55;19.50;95.10
18101;DHT22;9177;49.156;8.142;2023-11-18T06:06:23;19.50;95.10
18101;DHT22;9177;49.156;8.142;2023-11-18T06:08:51;19.50;95.10
18101;DHT22;9177;49.156;8.142;2023-11-18T06:11:19;19.40;95.10
18101;DHT22;9177;49.156;8.142;2023-11-18T06:13:47;19.40;95.10
18101;DHT22;9177;49.156;8.142;2023-11-18T06:16:15;19.40;95.10
18101;DHT22;9177;49.156;8.142;2023-11-18T06:18:43;19.50;95.10
18101;DHT22;9177;49.156;8.142;2023-11-18T06:21:14;19.40;95.10
18101;DHT22;9177;49.156;8.142;2023-11-18T06:23:41;19.40;95.00
18101;DHT22;9177;49.156;8.142;2023-11-18T06:26:09;19.40;95.10
18101;DHT22;9177;49.156;8.142;2023-11-18T06:28:38;19.40;95.40
18101;DHT22;9177;49.156;8.142;2023-11-18T06:31:05;19.40;95.00
18101;DHT22;9177;49.156;8.142;2023-11-18T06:33:38;19.40;95.00
18101;DHT22;9177;49.156;8.142;2023-11-18T06:36:08;19.40;95.20
18101;DHT22;9177;49.156;8.142;2023-11-18T06:38:36;19.40;95.00
18101;DHT22;9177;49.156;8.142;2023-11-18T06:41:04;19.40;95.00
18101;DHT22;9177;49.156;8.142;2023-11-18T06:43:36;19.40;95.00
18101;DHT22;9177;49.156;8.142;2023-11-18T06:46:18;19.40;95.00
18101;DHT22;9177;49.156;8.142;2023-11-18T06:48:46;19.40;95.00
18101;DHT22;9177;49.156;8.142;2023-11-18T06:51:14;19.50;95.00
18101;DHT22;9177;49.156;8.142;2023-11-18T06:53:42;19.40;95.00
18101;DHT22;9177;49.156;8.142;2023-11-18T06:56:09;19.40;94.90
18101;DHT22;9177;49.156;8.142;2023-11-18T06:58:38;19.40;94.90
18101;DHT22;9177;49.156;8.142;2023-11-18T07:01:06;19.40;94.90
18101;DHT22;9177;49.156;8.142;2023-11-18T07:03:33;19.40;95.10
18101;DHT22;9177;49.156;8.142;2023-11-18T07:06:00;19.40;94.90
18101;DHT22;9177;49.156;8.142;2023-11-18T07:08:27;19.40;94.90
18101;DHT22;9177;49.156;8.142;2023-11-18T07:10:54;19.40;94.90
18101;DHT22;9177;49.156;8.142;2023-11-18T07:13:22;19.40;94.90
18101;DHT22;9177;49.156;8.142;2023-11-18T07:15:50;19.40;94.90
18101;DHT22;9177;49.156;8.142;2023-11-18T07:18:19;19.40;94.90
18101;DHT22;9177;49.156;8.142;2023-11-18T07:20:48;19.40;94.90
18101;DHT22;9177;49.156;8.142;2023-11-18T07:23:17;19.40;94.90
18101;DHT22;9177;49.156;8.142;2023-11-18T07:25:43;19.50;94.90
18101;DHT22;9177;49.156;8.142;2023-11-18T07:28:11;19.50;94.90
18101;DHT22;9177;49.156;8.142;2023-11-18T07:30:40;19.40;94.90
18101;DHT22;9177;49.156;8.142;2023-11-18T07:33:08;19.40;95.20
18101;DHT22;9177;49.156;8.142;2023-11-18T07:35:35;19.40;94.90
18101;DHT22;9177;49.156;8.142;2023-11-18T07:38:02;19.40;94.90
18101;DHT22;9177;49.156;8.142;2023-11-18T07:40:29;19.40;94.90
18101;DHT22;9177;49.156;8.142;2023-11-18T07:42:59;19.40;94.90
18101;DHT22;9177;49.156;8.142;2023-11-18T07:45:27;19.40;94.90
18101;DHT22;9177;49.156;8.142;2023-11-18T07:47:54;19.40;94.90
18101;DHT22;9177;49.156;8.142;2023-11-18T07:50:23;19.40;94.90
18101;DHT22;9177;49.156;8.142;2023-11-18T07:52:50;19.40;94.90
18101;DHT22;9177;49.156;8.142;2023-11-18T07:55:17;19.40;94.90
18101;DHT22;9177;49.156;8.142;2023-11-18T07:57:44;19.50;94.90
18101;DHT22;9177;49.156;8.142;2023-11-18T08:00:13;19.40;94.90
18101;DHT22;9177;49.156;8.142;2023-11-18T08:02:40;19.40;94.90
18101;DHT22;9177;49.156;8.142;2023-11-18T08:05:08;19.50;94.90
18101;DHT22;9177;49.156;8.142;2023-11-18T08:07:40;19.40;94.90
18101;DHT22;9177;49.156;8.142;2023-11-18T08:10:09;19.50;94.90
18101;DHT22;9177;49.156;8.142;2023-11-18T08:12:39;19.40;94.90
18101;DHT22;9177;49.156;8.142;2023-11-18T08:15:07;19.50;94.90
18101;DHT22;9177;49.156;8.142;2023-11-18T08:17:35;19.40;94.90
18101;DHT22;9177;49.156;8.142;2023-11-18T08:20:03;19.50;94.90
18101;DHT22;9177;49.156;8.142;2023-11-18T08:22:32;19.50;94.90
18101;DHT22;9177;49.156;8.142;2023-11-18T08:25:01;19.50;94.90
18101;DHT22;9177;49.156;8.142;2023-11-18T08:27:34;19.40;94.90
18101;DHT22;9177;49.156;8.142;2023-11-18T08:30:01;19.40;94.90
18101;DHT22;9177;49.156;8.142;2023-11-18T08:32:31;19.40;94.90
18101;DHT22;9177;49.156;8.142;2023-11-18T08:34:58;19.40;94.90
18101;DHT22;9177;49.156;8.142;2023-11-18T08:37:25;19.40;94.90
18101;DHT22;9177;49.156;8.142;2023-11-18T08:39:53;19.50;94.90
18101;DHT22;9177;49.156;8.142;2023-11-18T08:42:22;19.50;94.90
18101;DHT22;9177;49.156;8.142;2023-11-18T08:44:50;19.40;94.90
18101;DHT22;9177;49.156;8.142;2023-11-18T08:47:17;19.50;94.90
18101;DHT22;9177;49.156;8.142;2023-11-18T08:49:45;19.50;94.90
18101;DHT22;9177;49.156;8.142;2023-11-18T08:52:12;19.50;94.90
18101;DHT22;9177;49.156;8.142;2023-11-18T08:54:39;19.50;94.90
18101;DHT22;9177;49.156;8.142;2023-11-18T08:57:27;19.50;94.90
18101;DHT22;9177;49.156;8.142;2023-11-18T09:00:14;19.50;94.90
18101;DHT22;9177;49.156;8.142;2023-11-18T09:03:03;19.50;94.90
18101;DHT22;9177;49.156;8.142;2023-11-18T09:05:32;19.50;94.90
18101;DHT22;9177;49.156;8.142;2023-11-18T09:08:01;19.50;94.90
18101;DHT22;9177;49.156;8.142;2023-11-18T09:10:32;19.50;94.90
18101;DHT22;9177;49.156;8.142;2023-11-18T09:13:01;19.50;94.90
18101;DHT22;9177;49.156;8.142;2023-11-18T09:15:29;19.50;94.90
18101;DHT22;9177;49.156;8.142;2023-11-18T09:17:56;19.50;94.90
18101;DHT22;9177;49.156;8.142;2023-11-18T09:20:25;19.50;94.90
18101;DHT22;9177;49.156;8.142;2023-11-18T09:22:52;19.50;94.80
18101;DHT22;9177;49.156;8.142;2023-11-18T09:25:21;19.50;94.80
18101;DHT22;9177;49.156;8.142;2023-11-18T09:27:49;19.50;94.90
18101;DHT22;9177;49.156;8.142;2023-11-18T09:30:17;19.50;94.80
18101;DHT22;9177;49.156;8.142;2023-11-18T09:32:44;19.50;94.90
18101;DHT22;9177;49.156;8.142;2023-11-18T09:35:13;19.50;94.80
18101;DHT22;9177;49.156;8.142;2023-11-18T09:37:40;19.50;94.80
18101;DHT22;9177;49.156;8.142;2023-11-18T09:40:13;19.50;94.90
18101;DHT22;9177;49.156;8.142;2023-11-18T09:42:40;19.50;94.80
18101;DHT22;9177;49.156;8.142;2023-11-18T09:45:09;19.50;94.80
18101;DHT22;9177;49.156;8.142;2023-11-18T09:47:43;19.50;94.80
18101;DHT22;9177;49.156;8.142;2023-11-18T09:50:14;19.50;94.80
18101;DHT22;9177;49.156;8.142;2023-11-18T09:52:48;19.50;94.90
18101;DHT22;9177;49.156;8.142;2023-11-18T09:55:25;19.50;94.80
18101;DHT22;9177;49.156;8.142;2023-11-18T09:58:01;19.50;94.90
18101;DHT22;9177;49.156;8.142;2023-11-18T10:00:35;19.50;94.80
18101;DHT22;9177;49.156;8.142;2023-11-18T10:03:06;19.50;94.80
18101;DHT22;9177;49.156;8.142;2023-11-18T10:05:35;19.50;94.80
18101;DHT22;9177;49.156;8.142;2023-11-18T10:08:03;19.50;94.80
18101;DHT22;9177;49.156;8.142;2023-11-18T10:10:31;19.50;94.80
18101;DHT22;9177;49.156;8.142;2023-11-18T10:13:02;19.50;94.80
18101;DHT22;9177;49.156;8.142;2023-11-18T10:15:34;19.50;94.90
18101;DHT22;9177;49.156;8.142;2023-11-18T10:18:03;19.50;95.20
18101;DHT22;9177;49.156;8.142;2023-11-18T10:20:48;19.50;94.90
18101;DHT22;9177;49.156;8.142;2023-11-18T10:23:17;19.50;94.80
18101;DHT22;9177;49.156;8.142;2023-11-18T10:25:46;19.50;94.80
18101;DHT22;9177;49.156;8.142;2023-11-18T10:28:24;19.50;94.90
18101;DHT22;9177;49.156;8.142;2023-11-18T10:30:53;19.50;94.90
18101;DHT22;9177;49.156;8.142;2023-11-18T10:33:24;19.50;94.80
18101;DHT22;9177;49.156;8.142;2023-11-18T10:35:58;19.50;94.80
18101;DHT22;9177;49.156;8.142;2023-11-18T10:38:29;19.50;94.80
18101;DHT22;9177;49.156;8.142;2023-11-18T10:40:57;19.50;94.80
18101;DHT22;9177;49.156;8.142;2023-11-18T10:43:27;19.50;94.80
18101;DHT22;9177;49.156;8.142;2023-11-18T10:46:05;19.50;94.80
18101;DHT22;9177;49.156;8.142;2023-11-18T10:48:39;19.40;94.80
18101;DHT22;9177;49.156;8.142;2023-11-18T10:51:10;19.40;94.80
18101;DHT22;9177;49.156;8.142;2023-11-18T10:53:40;19.40;94.80
18101;DHT22;9177;49.156;8.142;2023-11-18T10:56:17;19.40;94.80
18101;DHT22;9177;49.156;8.142;2023-11-18T10:58:50;19.40;94.80
18101;DHT22;9177;49.156;8.142;2023-11-18T11:01:27;19.40;94.80
18101;DHT22;9177;49.156;8.142;2023-11-18T11:03:55;19.40;94.80
18101;DHT22;9177;49.156;8.142;2023-11-18T11:06:24;19.40;94.80
18101;DHT22;9177;49.156;8.142;2023-11-18T11:08:52;19.30;95.20
18101;DHT22;9177;49.156;8.142;2023-11-18T11:11:20;19.30;95.00
18101;DHT22;9177;49.156;8.142;2023-11-18T11:13:49;19.10;94.80
18101;DHT22;9177;49.156;8.142;2023-11-18T11:16:24;18.90;95.00
18101;DHT22;9177;49.156;8.142;2023-11-18T11:18:55;19.10;95.00
18101;DHT22;9177;49.156;8.142;2023-11-18T11:21:31;19.30;94.70
18101;DHT22;9177;49.156;8.142;2023-11-18T11:24:03;19.30;94.50
18101;DHT22;9177;49.156;8.142;2023-11-18T11:26:38;19.40;94.50
18101;DHT22;9177;49.156;8.142;2023-11-18T11:29:21;19.40;94.20
18101;DHT22;9177;49.156;8.142;2023-11-18T11:32:02;19.40;94.20
18101;DHT22;9177;49.156;8.142;2023-11-18T11:34:40;19.50;94.20
18101;DHT22;9177;49.156;8.142;2023-11-18T11:37:14;19.40;94.00
18101;DHT22;9177;49.156;8.142;2023-11-18T11:39:43;19.40;93.90
18101;DHT22;9177;49.156;8.142;2023-11-18T11:42:13;19.40;94.10
18101;DHT22;9177;49.156;8.142;2023-11-18T11:44:44;19.40;93.90
18101;DHT22;9177;49.156;8.142;2023-11-18T11:47:13;19.50;93.90
18101;DHT22;9177;49.156;8.142;2023-11-18T11:49:47;19.50;93.90
18101;DHT22;9177;49.156;8.142;2023-11-18T11:52:28;19.50;93.70
18101;DHT22;9177;49.156;8.142;2023-11-18T11:55:01;19.40;93.60
18101;DHT22;9177;49.156;8.142;2023-11-18T11:57:38;19.50;93.70
18101;DHT22;9177;49.156;8.142;2023-11-18T12:00:10;19.60;93.50
18101;DHT22;9177;49.156;8.142;2023-11-18T12:02:48;19.80;93.30
18101;DHT22;9177;49.156;8.142;2023-11-18T12:05:17;20.10;93.00
18101;DHT22;9177;49.156;8.142;2023-11-18T12:07:52;20.40;92.80
18101;DHT22;9177;49.156;8.142;2023-11-18T12:10:21;20.50;92.70
18101;DHT22;9177;49.156;8.142;2023-11-18T12:12:48;20.60;92.80
18101;DHT22;9177;49.156;8.142;2023-11-18T12:15:47;20.60;92.80
18101;DHT22;9177;49.156;8.142;2023-11-18T12:18:20;20.60;93.40
18101;DHT22;9177;49.156;8.142;2023-11-18T12:20:47;20.50;93.10
18101;DHT22;9177;49.156;8.142;2023-11-18T12:23:21;20.50;93.10
18101;DHT22;9177;49.156;8.142;2023-11-18T12:25:50;20.50;93.40
18101;DHT22;9177;49.156;8.142;2023-11-18T12:28:25;20.40;93.40
18101;DHT22;9177;49.156;8.142;2023-11-18T12:30:54;20.40;93.50
18101;DHT22;9177;49.156;8.142;2023-11-18T12:34:00;20.40;93.90
18101;DHT22;9177;49.156;8.142;2023-11-18T12:37:06;20.30;93.50
18101;DHT22;9177;49.156;8.142;2023-11-18T12:43:03;20.20;93.50
18101;DHT22;9177;49.156;8.142;2023-11-18T12:46:06;20.30;93.70
18101;DHT22;9177;49.156;8.142;2023-11-18T12:48:43;20.30;93.70
18101;DHT22;9177;49.156;8.142;2023-11-18T12:51:12;20.30;93.70
18101;DHT22;9177;49.156;8.142;2023-11-18T12:53:47;20.20;93.80
18101;DHT22;9177;49.156;8.142;2023-11-18T12:56:17;20.20;93.90
18101;DHT22;9177;49.156;8.142;2023-11-18T12:58:47;20.30;94.00
18101;DHT22;9177;49.156;8.142;2023-11-18T13:01:14;20.30;94.20
18101;DHT22;9177;49.156;8.142;2023-11-18T13:03:41;20.30;94.20
18101;DHT22;9177;49.156;8.142;2023-11-18T13:06:10;20.40;94.40
18101;DHT22;9177;49.156;8.142;2023-11-18T13:08:38;20.40;94.40
18101;DHT22;9177;49.156;8.142;2023-11-18T13:11:05;20.40;94.30
18101;DHT22;9177;49.156;8.142;2023-11-18T13:13:38;20.40;94.60
18101;DHT22;9177;49.156;8.142;2023-11-18T13:16:08;20.40;94.40
18101;DHT22;9177;49.156;8.142;2023-11-18T13:18:44;20.40;94.50
18101;DHT22;9177;49.156;8.142;2023-11-18T13:21:15;20.30;94.20
18101;DHT22;9177;49.156;8.142;2023-11-18T13:23:45;20.30;94.20
18101;DHT22;9177;49.156;8.142;2023-11-18T13:26:14;20.30;94.30
18101;DHT22;9177;49.156;8.142;2023-11-18T13:28:42;20.20;94.30
18101;DHT22;9177;49.156;8.142;2023-11-18T13:31:11;20.20;94.40
18101;DHT22;9177;49.156;8.142;2023-11-18T13:33:42;20.20;94.40
18101;DHT22;9177;49.156;8.142;2023-11-18T13:36:10;20.20;94.30
18101;DHT22;9177;49.156;8.142;2023-11-18T13:38:38;20.20;94.40
18101;DHT22;9177;49.156;8.142;2023-11-18T13:41:05;20.20;94.40
18101;DHT22;9177;49.156;8.142;2023-11-18T13:43:43;20.10;94.50
18101;DHT22;9177;49.156;8.142;2023-11-18T13:46:13;20.10;94.50
18101;DHT22;9177;49.156;8.142;2023-11-18T13:48:40;20.10;94.50
18101;DHT22;9177;49.156;8.142;2023-11-18T13:51:09;20.10;94.60
18101;DHT22;9177;49.156;8.142;2023-11-18T13:53:39;20.10;94.60
18101;DHT22;9177;49.156;8.142;2023-11-18T13:56:09;20.00;94.60
18101;DHT22;9177;49.156;8.142;2023-11-18T13:58:38;20.00;94.70
18101;DHT22;9177;49.156;8.142;2023-11-18T14:01:05;19.90;94.80
18101;DHT22;9177;49.156;8.142;2023-11-18T14:03:36;19.90;94.80
18101;DHT22;9177;49.156;8.142;2023-11-18T14:06:06;19.90;94.80
18101;DHT22;9177;49.156;8.142;2023-11-18T14:08:36;19.90;94.80
18101;DHT22;9177;49.156;8.142;2023-11-18T14:11:03;19.80;94.80
18101;DHT22;9177;49.156;8.142;2023-11-18T14:13:31;19.80;94.90
18101;DHT22;9177;49.156;8.142;2023-11-18T14:16:00;19.80;94.90
18101;DHT22;9177;49.156;8.142;2023-11-18T14:18:28;19.80;94.90
18101;DHT22;9177;49.156;8.142;2023-11-18T14:20:56;19.80;94.90
18101;DHT22;9177;49.156;8.142;2023-11-18T14:23:24;19.80;94.90
18101;DHT22;9177;49.156;8.142;2023-11-18T14:25:51;19.80;94.90
18101;DHT22;9177;49.156;8.142;2023-11-18T14:28:18;19.70;94.90
18101;DHT22;9177;49.156;8.142;2023-11-18T14:30:51;19.70;94.90
18101;DHT22;9177;49.156;8.142;2023-11-18T14:33:18;19.70;94.90
18101;DHT22;9177;49.156;8.142;2023-11-18T14:35:46;19.70;94.90
18101;DHT22;9177;49.156;8.142;2023-11-18T14:38:15;19.70;94.90
18101;DHT22;9177;49.156;8.142;2023-11-18T14:40:45;19.70;94.90
18101;DHT22;9177;49.156;8.142;2023-11-18T14:43:14;19.70;94.90
18101;DHT22;9177;49.156;8.142;2023-11-18T14:45:41;19.70;94.90
18101;DHT22;9177;49.156;8.142;2023-11-18T14:48:09;19.60;94.90
18101;DHT22;9177;49.156;8.142;2023-11-18T14:50:36;19.60;94.90
18101;DHT22;9177;49.156;8.142;2023-11-18T14:53:04;19.60;94.90
18101;DHT22;9177;49.156;8.142;2023-11-18T14:55:33;19.60;94.90
18101;DHT22;9177;49.156;8.142;2023-11-18T14:58:00;19.60;95.20
18101;DHT22;9177;49.156;8.142;2023-11-18T15:00:30;19.60;94.90
18101;DHT22;9177;49.156;8.142;2023-11-18T15:03:00;19.60;94.90
18101;DHT22;9177;49.156;8.142;2023-11-18T15:05:27;19.60;94.90
18101;DHT22;9177;49.156;8.142;2023-11-18T15:07:55;19.60;94.90
18101;DHT22;9177;49.156;8.142;2023-11-18T15:10:24;19.60;94.80
18101;DHT22;9177;49.156;8.142;2023-11-18T15:12:54;19.60;94.90
18101;DHT22;9177;49.156;8.142;2023-11-18T15:15:26;19.60;94.90
18101;DHT22;9177;49.156;8.142;2023-11-18T15:17:57;19.60;94.90
18101;DHT22;9177;49.156;8.142;2023-11-18T15:20:25;19.50;95.20
18101;DHT22;9177;49.156;8.142;2023-11-18T15:22:52;19.50;94.90
18101;DHT22;9177;49.156;8.142;2023-11-18T15:25:20;19.60;94.80
18101;DHT22;9177;49.156;8.142;2023-11-18T15:27:47;19.60;94.90
18101;DHT22;9177;49.156;8.142;2023-11-18T15:30:16;19.50;94.80
18101;DHT22;9177;49.156;8.142;2023-11-18T15:32:45;19.50;94.80
18101;DHT22;9177;49.156;8.142;2023-11-18T15:35:12;19.50;94.80
18101;DHT22;9177;49.156;8.142;2023-11-18T15:37:43;19.50;94.80
18101;DHT22;9177;49.156;8.142;2023-11-18T15:40:13;19.50;94.80
18101;DHT22;9177;49.156;8.142;2023-11-18T15:42:41;19.50;94.80
18101;DHT22;9177;49.156;8.142;2023-11-18T15:45:09;19.60;94.90
18101;DHT22;9177;49.156;8.142;2023-11-18T15:47:40;19.60;94.80
18101;DHT22;9177;49.156;8.142;2023-11-18T15:50:09;19.50;95.20
18101;DHT22;9177;49.156;8.142;2023-11-18T15:52:38;19.50;94.80
18101;DHT22;9177;49.156;8.142;2023-11-18T15:55:06;19.50;94.80
18101;DHT22;9177;49.156;8.142;2023-11-18T15:57:40;19.50;94.80
18101;DHT22;9177;49.156;8.142;2023-11-18T16:00:09;19.50;94.80
18101;DHT22;9177;49.156;8.142;2023-11-18T16:02:43;19.50;94.80